sensor_id;sensor_type;location;lat;lon;timestamp;pressure;altitude;pressure_sealevel;temperature;humidity
48824;BME280;34640;53.590;10.054;2022-10-04T00:03:01;101811.22;;;11.92;100.00
48824;BME280;34640;53.590;10.054;2022-10-04T00:06:14;101810.69;;;11.84;100.00
48824;BME280;34640;53.590;10.054;2022-10-04T00:09:25;101815.91;;;11.84;100.00
48824;BME280;34640;53.590;10.054;2022-10-04T00:12:38;101813.88;;;11.80;100.00
48824;BME280;34640;53.590;10.054;2022-10-04T00:15:48;101821.59;;;11.79;100.00
48824;BME280;34640;53.590;10.054;2022-10-04T00:19:24;101806.72;;;11.78;100.00
48824;BME280;34640;53.590;10.054;2022-10-04T00:22:35;101809.09;;;11.75;100.00
48824;BME280;34640;53.590;10.054;2022-10-04T00:25:43;101815.22;;;11.75;100.00
48824;BME280;34640;53.590;10.054;2022-10-04T00:28:50;101809.00;;;11.73;100.00
48824;BME280;34640;53.590;10.054;2022-10-04T00:32:26;101806.13;;;11.70;100.00
48824;BME280;34640;53.590;10.054;2022-10-04T00:35:49;101812.03;;;11.68;100.00
48824;BME280;34640;53.590;10.054;2022-10-04T00:39:16;101810.13;;;11.65;100.00
48824;BME280;34640;53.590;10.054;2022-10-04T00:42:36;101808.91;;;11.60;100.00
48824;BME280;34640;53.590;10.054;2022-10-04T00:45:48;101813.09;;;11.58;100.00
48824;BME280;34640;53.590;10.054;2022-10-04T00:49:00;101793.63;;;11.53;100.00
48824;BME280;34640;53.590;10.054;2022-10-04T00:52:18;101793.41;;;11.50;100.00
48824;BME280;34640;53.590;10.054;2022-10-04T00:55:32;101791.44;;;11.47;100.00
48824;BME280;34640;53.590;10.054;2022-10-04T00:58:48;101786.22;;;11.47;100.00
48824;BME280;34640;53.590;10.054;2022-10-04T01:02:03;101786.22;;;11.47;100.00
48824;BME280;34640;53.590;10.054;2022-10-04T01:05:15;101784.63;;;11.49;100.00
48824;BME280;34640;53.590;10.054;2022-10-04T01:08:27;101779.41;;;11.49;100.00
48824;BME280;34640;53.590;10.054;2022-10-04T01:11:43;101780.09;;;11.47;100.00
48824;BME280;34640;53.590;10.054;2022-10-04T01:15:02;101773.88;;;11.45;100.00
48824;BME280;34640;53.590;10.054;2022-10-04T01:18:30;101771.25;;;11.45;100.00
48824;BME280;34640;53.590;10.054;2022-10-04T01:21:41;101766.94;;;11.45;100.00
48824;BME280;34640;53.590;10.054;2022-10-04T01:24:48;101776.25;;;11.42;100.00
48824;BME280;34640;53.590;10.054;2022-10-04T01:27:55;101762.09;;;11.38;100.00
48824;BME280;34640;53.590;10.054;2022-10-04T01:31:05;101762.00;;;11.37;100.00
48824;BME280;34640;53.590;10.054;2022-10-04T01:34:14;101772.53;;;11.38;100.00
48824;BME280;34640;53.590;10.054;2022-10-04T01:37:21;101766.31;;;11.36;100.00
48824;BME280;34640;53.590;10.054;2022-10-04T01:40:32;101767.09;;;11.35;100.00
48824;BME280;34640;53.590;10.054;2022-10-04T01:43:40;101755.53;;;11.31;100.00
48824;BME280;34640;53.590;10.054;2022-10-04T01:46:49;101750.09;;;11.28;100.00
48824;BME280;34640;53.590;10.054;2022-10-04T01:50:01;101753.47;;;11.27;100.00
48824;BME280;34640;53.590;10.054;2022-10-04T01:53:17;101747.13;;;11.24;100.00
48824;BME280;34640;53.590;10.054;2022-10-04T01:56:28;101739.00;;;11.19;100.00
48824;BME280;34640;53.590;10.054;2022-10-04T01:59:45;101745.78;;;11.17;100.00
48824;BME280;34640;53.590;10.054;2022-10-04T02:02:57;101745.56;;;11.14;100.00
48824;BME280;34640;53.590;10.054;2022-10-04T02:06:07;101736.97;;;11.15;100.00
48824;BME280;34640;53.590;10.054;2022-10-04T02:09:18;101726.31;;;11.12;100.00
48824;BME280;34640;53.590;10.054;2022-10-04T02:12:29;101723.81;;;11.14;100.00
48824;BME280;34640;53.590;10.054;2022-10-04T02:15:38;101724.34;;;11.21;100.00
48824;BME280;34640;53.590;10.054;2022-10-04T02:18:48;101727.97;;;11.23;100.00
48824;BME280;34640;53.590;10.054;2022-10-04T02:22:00;101723.88;;;11.27;100.00
48824;BME280;34640;53.590;10.054;2022-10-04T02:25:09;101716.31;;;11.30;100.00
48824;BME280;34640;53.590;10.054;2022-10-04T02:28:17;101725.47;;;11.37;100.00
48824;BME280;34640;53.590;10.054;2022-10-04T02:31:27;101727.50;;;11.41;100.00
48824;BME280;34640;53.590;10.054;2022-10-04T02:34:52;101724.53;;;11.48;100.00
48824;BME280;34640;53.590;10.054;2022-10-04T02:38:07;101716.38;;;11.43;100.00
48824;BME280;34640;53.590;10.054;2022-10-04T02:41:23;101715.38;;;11.41;100.00
48824;BME280;34640;53.590;10.054;2022-10-04T02:44:35;101701.63;;;11.44;100.00
48824;BME280;34640;53.590;10.054;2022-10-04T02:47:50;101698.72;;;11.39;100.00
48824;BME280;34640;53.590;10.054;2022-10-04T02:51:12;101696.19;;;11.41;100.00
48824;BME280;34640;53.590;10.054;2022-10-04T02:54:27;101683.28;;;11.42;100.00
48824;BME280;34640;53.590;10.054;2022-10-04T02:57:40;101675.75;;;11.47;100.00
48824;BME280;34640;53.590;10.054;2022-10-04T03:00:55;101688.09;;;11.49;100.00
48824;BME280;34640;53.590;10.054;2022-10-04T03:04:03;101687.66;;;11.55;100.00
48824;BME280;34640;53.590;10.054;2022-10-04T03:07:10;101693.19;;;11.59;100.00
48824;BME280;34640;53.590;10.054;2022-10-04T03:10:20;101691.28;;;11.57;100.00
48824;BME280;34640;53.590;10.054;2022-10-04T03:13:28;101696.03;;;11.62;100.00
48824;BME280;34640;53.590;10.054;2022-10-04T03:16:36;101689.00;;;11.61;100.00
48824;BME280;34640;53.590;10.054;2022-10-04T03:19:46;101687.66;;;11.55;100.00
48824;BME280;34640;53.590;10.054;2022-10-04T03:22:54;101685.84;;;11.54;100.00
48824;BME280;34640;53.590;10.054;2022-10-04T03:26:19;101687.19;;;11.60;100.00
48824;BME280;34640;53.590;10.054;2022-10-04T03:29:31;101682.06;;;11.62;100.00
48824;BME280;34640;53.590;10.054;2022-10-04T03:32:42;101684.19;;;11.68;100.00
48824;BME280;34640;53.590;10.054;2022-10-04T03:35:51;101683.63;;;11.72;100.00
48824;BME280;34640;53.590;10.054;2022-10-04T03:39:07;101687.47;;;11.77;100.00
48824;BME280;34640;53.590;10.054;2022-10-04T03:42:16;101686.44;;;11.75;100.00
48824;BME280;34640;53.590;10.054;2022-10-04T03:45:25;101681.13;;;11.73;100.00
48824;BME280;34640;53.590;10.054;2022-10-04T03:48:40;101681.13;;;11.73;100.00
48824;BME280;34640;53.590;10.054;2022-10-04T03:51:49;101680.22;;;11.73;100.00
48824;BME280;34640;53.590;10.054;2022-10-04T03:55:00;101673.41;;;11.75;100.00
48824;BME280;34640;53.590;10.054;2022-10-04T03:58:12;101674.22;;;11.74;100.00
48824;BME280;34640;53.590;10.054;2022-10-04T04:01:29;101678.41;;;11.72;100.00
48824;BME280;34640;53.590;10.054;2022-10-04T04:04:44;101681.13;;;11.73;100.00
48824;BME280;34640;53.590;10.054;2022-10-04T04:08:02;101673.75;;;11.68;100.00
48824;BME280;34640;53.590;10.054;2022-10-04T04:11:17;101675.47;;;11.67;100.00
48824;BME280;34640;53.590;10.054;2022-10-04T04:14:27;101685.91;;;11.67;100.00
48824;BME280;34640;53.590;10.054;2022-10-04T04:17:39;101679.06;;;11.69;100.00
48824;BME280;34640;53.590;10.054;2022-10-04T04:20:50;101676.56;;;11.71;100.00
48824;BME280;34640;53.590;10.054;2022-10-04T04:24:01;101674.09;;;11.72;100.00
48824;BME280;34640;53.590;10.054;2022-10-04T04:27:12;101678.16;;;11.69;100.00
48824;BME280;34640;53.590;10.054;2022-10-04T04:30:27;101681.94;;;11.72;100.00
48824;BME280;34640;53.590;10.054;2022-10-04T04:33:42;101685.44;;;11.73;100.00
48824;BME280;34640;53.590;10.054;2022-10-04T04:36:56;101677.63;;;11.73;100.00
48824;BME280;34640;53.590;10.054;2022-10-04T04:40:20;101677.63;;;11.73;100.00
48824;BME280;34640;53.590;10.054;2022-10-04T04:43:28;101676.56;;;11.71;100.00
48824;BME280;34640;53.590;10.054;2022-10-04T04:46:36;101669.69;;;11.71;100.00
48824;BME280;34640;53.590;10.054;2022-10-04T04:49:44;101667.28;;;11.74;100.00
48824;BME280;34640;53.590;10.054;2022-10-04T04:52:53;101656.94;;;11.76;100.00
48824;BME280;34640;53.590;10.054;2022-10-04T04:56:03;101639.81;;;11.79;100.00
48824;BME280;34640;53.590;10.054;2022-10-04T04:59:20;101650.38;;;11.81;100.00
48824;BME280;34640;53.590;10.054;2022-10-04T05:02:30;101651.06;;;11.78;100.00
48824;BME280;34640;53.590;10.054;2022-10-04T05:05:44;101647.25;;;11.86;100.00
48824;BME280;34640;53.590;10.054;2022-10-04T05:08:53;101650.56;;;11.84;100.00
48824;BME280;34640;53.590;10.054;2022-10-04T05:12:05;101647.88;;;11.82;100.00
48824;BME280;34640;53.590;10.054;2022-10-04T05:15:14;101657.41;;;11.82;100.00
48824;BME280;34640;53.590;10.054;2022-10-04T05:18:28;101658.31;;;11.82;100.00
48824;BME280;34640;53.590;10.054;2022-10-04T05:21:34;101661.38;;;11.77;100.00
48824;BME280;34640;53.590;10.054;2022-10-04T05:24:51;101656.63;;;11.71;100.00
48824;BME280;34640;53.590;10.054;2022-10-04T05:28:03;101655.59;;;11.69;100.00
48824;BME280;34640;53.590;10.054;2022-10-04T05:31:27;101657.41;;;11.70;100.00
48824;BME280;34640;53.590;10.054;2022-10-04T05:34:38;101657.06;;;11.77;100.00
48824;BME280;34640;53.590;10.054;2022-10-04T05:37:57;101646.16;;;11.83;100.00
48824;BME280;34640;53.590;10.054;2022-10-04T05:41:12;101649.97;;;11.88;100.00
48824;BME280;34640;53.590;10.054;2022-10-04T05:44:26;101648.97;;;11.86;100.00
48824;BME280;34640;53.590;10.054;2022-10-04T05:47:39;101656.09;;;11.88;100.00
48824;BME280;34640;53.590;10.054;2022-10-04T05:50:47;101651.31;;;11.95;100.00
48824;BME280;34640;53.590;10.054;2022-10-04T05:53:56;101658.47;;;11.97;100.00
48824;BME280;34640;53.590;10.054;2022-10-04T06:00:40;101663.78;;;11.99;100.00
48824;BME280;34640;53.590;10.054;2022-10-04T06:04:14;101664.69;;;11.99;100.00
48824;BME280;34640;53.590;10.054;2022-10-04T06:07:27;101659.66;;;12.02;100.00
48824;BME280;34640;53.590;10.054;2022-10-04T06:10:49;101662.59;;;12.07;100.00
48824;BME280;34640;53.590;10.054;2022-10-04T06:14:21;101659.00;;;12.18;100.00
48824;BME280;34640;53.590;10.054;2022-10-04T06:21:26;101658.47;;;12.10;100.00
48824;BME280;34640;53.590;10.054;2022-10-04T06:24:37;101665.09;;;12.05;100.00
48824;BME280;34640;53.590;10.054;2022-10-04T06:27:50;101657.97;;;12.03;100.00
48824;BME280;34640;53.590;10.054;2022-10-04T06:31:21;101647.41;;;12.01;100.00
48824;BME280;34640;53.590;10.054;2022-10-04T06:34:52;101651.72;;;12.01;100.00
48824;BME280;34640;53.590;10.054;2022-10-04T06:42:26;101646.81;;;12.05;100.00
48824;BME280;34640;53.590;10.054;2022-10-04T06:45:53;101648.81;;;12.09;100.00
48824;BME280;34640;53.590;10.054;2022-10-04T06:49:32;101645.06;;;12.17;100.00
48824;BME280;34640;53.590;10.054;2022-10-04T06:52:52;101647.06;;;12.35;100.00
48824;BME280;34640;53.590;10.054;2022-10-04T06:56:28;101644.38;;;12.46;100.00
48824;BME280;34640;53.590;10.054;2022-10-04T07:00:02;101643.69;;;12.62;100.00
48824;BME280;34640;53.590;10.054;2022-10-04T07:03:14;101654.91;;;12.74;100.00
48824;BME280;34640;53.590;10.054;2022-10-04T07:06:29;101653.59;;;12.94;100.00
48824;BME280;34640;53.590;10.054;2022-10-04T07:09:42;101656.81;;;13.03;100.00
48824;BME280;34640;53.590;10.054;2022-10-04T07:13:29;101658.19;;;13.11;100.00
48824;BME280;34640;53.590;10.054;2022-10-04T07:16:44;101664.53;;;13.28;100.00
48824;BME280;34640;53.590;10.054;2022-10-04T07:19:53;101671.34;;;13.39;100.00
48824;BME280;34640;53.590;10.054;2022-10-04T07:23:05;101666.97;;;13.53;100.00
48824;BME280;34640;53.590;10.054;2022-10-04T07:26:26;101669.06;;;13.59;100.00
48824;BME280;34640;53.590;10.054;2022-10-04T07:29:38;101668.44;;;13.63;100.00
48824;BME280;34640;53.590;10.054;2022-10-04T07:32:49;101672.97;;;13.65;100.00
48824;BME280;34640;53.590;10.054;2022-10-04T07:36:05;101670.88;;;13.60;100.00
48824;BME280;34640;53.590;10.054;2022-10-04T07:39:17;101665.09;;;13.65;100.00
48824;BME280;34640;53.590;10.054;2022-10-04T07:42:32;101670.84;;;13.73;100.00
48824;BME280;34640;53.590;10.054;2022-10-04T07:45:46;101675.34;;;13.75;100.00
48824;BME280;34640;53.590;10.054;2022-10-04T07:48:56;101673.00;;;13.80;100.00
48824;BME280;34640;53.590;10.054;2022-10-04T07:52:36;101672.78;;;13.90;100.00
48824;BME280;34640;53.590;10.054;2022-10-04T07:55:54;101676.91;;;13.87;100.00
48824;BME280;34640;53.590;10.054;2022-10-04T07:59:21;101676.47;;;13.94;100.00
48824;BME280;34640;53.590;10.054;2022-10-04T08:02:46;101681.00;;;13.96;100.00
48824;BME280;34640;53.590;10.054;2022-10-04T08:06:08;101681.19;;;13.99;100.00
48824;BME280;34640;53.590;10.054;2022-10-04T08:09:26;101672.25;;;14.11;100.00
48824;BME280;34640;53.590;10.054;2022-10-04T08:12:43;101681.94;;;14.12;100.00
48824;BME280;34640;53.590;10.054;2022-10-04T08:16:02;101672.88;;;14.06;100.00
48824;BME280;34640;53.590;10.054;2022-10-04T08:19:26;101665.50;;;14.14;100.00
48824;BME280;34640;53.590;10.054;2022-10-04T08:22:49;101672.44;;;14.28;100.00
48824;BME280;34640;53.590;10.054;2022-10-04T08:26:11;101667.41;;;14.46;100.00
48824;BME280;34640;53.590;10.054;2022-10-04T08:29:32;101671.75;;;14.60;100.00
48824;BME280;34640;53.590;10.054;2022-10-04T08:33:00;101665.22;;;14.68;100.00
48824;BME280;34640;53.590;10.054;2022-10-04T08:36:24;101673.25;;;14.72;100.00
48824;BME280;34640;53.590;10.054;2022-10-04T08:39:51;101668.19;;;14.75;100.00
48824;BME280;34640;53.590;10.054;2022-10-04T08:43:17;101669.81;;;14.87;100.00
48824;BME280;34640;53.590;10.054;2022-10-04T08:46:52;101677.19;;;14.94;100.00
48824;BME280;34640;53.590;10.054;2022-10-04T08:50:40;101680.34;;;15.04;100.00
48824;BME280;34640;53.590;10.054;2022-10-04T08:54:35;101680.69;;;15.10;100.00
48824;BME280;34640;53.590;10.054;2022-10-04T08:58:05;101677.16;;;15.09;100.00
48824;BME280;34640;53.590;10.054;2022-10-04T09:01:31;101678.22;;;15.13;100.00
48824;BME280;34640;53.590;10.054;2022-10-04T09:09:03;101676.38;;;15.26;100.00
48824;BME280;34640;53.590;10.054;2022-10-04T09:16:08;101678.44;;;15.32;100.00
48824;BME280;34640;53.590;10.054;2022-10-04T09:19:22;101672.28;;;15.32;100.00
48824;BME280;34640;53.590;10.054;2022-10-04T09:22:47;101670.06;;;15.39;100.00
48824;BME280;34640;53.590;10.054;2022-10-04T09:26:18;101670.19;;;15.41;100.00
48824;BME280;34640;53.590;10.054;2022-10-04T09:29:40;101663.59;;;15.33;100.00
48824;BME280;34640;53.590;10.054;2022-10-04T09:33:21;101656.47;;;15.46;100.00
48824;BME280;34640;53.590;10.054;2022-10-04T09:36:49;101649.78;;;15.68;100.00
48824;BME280;34640;53.590;10.054;2022-10-04T09:40:37;101643.78;;;15.70;100.00
48824;BME280;34640;53.590;10.054;2022-10-04T09:44:29;101651.69;;;15.86;100.00
48824;BME280;34640;53.590;10.054;2022-10-04T09:47:44;101656.34;;;15.92;100.00
48824;BME280;34640;53.590;10.054;2022-10-04T09:51:25;101652.56;;;15.87;100.00
48824;BME280;34640;53.590;10.054;2022-10-04T09:55:02;101658.38;;;15.81;100.00
48824;BME280;34640;53.590;10.054;2022-10-04T09:58:23;101658.72;;;15.87;100.00
48824;BME280;34640;53.590;10.054;2022-10-04T10:01:50;101656.25;;;15.91;100.00
48824;BME280;34640;53.590;10.054;2022-10-04T10:05:12;101650.84;;;15.71;100.00
48824;BME280;34640;53.590;10.054;2022-10-04T10:08:35;101653.06;;;15.80;100.00
48824;BME280;34640;53.590;10.054;2022-10-04T10:11:53;101661.53;;;15.74;100.00
48824;BME280;34640;53.590;10.054;2022-10-04T10:15:27;101657.56;;;15.82;100.00
48824;BME280;34640;53.590;10.054;2022-10-04T10:18:45;101663.41;;;15.93;100.00
48824;BME280;34640;53.590;10.054;2022-10-04T10:22:10;101664.28;;;15.94;100.00
48824;BME280;34640;53.590;10.054;2022-10-04T10:25:33;101658.06;;;15.92;100.00
48824;BME280;34640;53.590;10.054;2022-10-04T10:28:56;101656.94;;;15.70;100.00
48824;BME280;34640;53.590;10.054;2022-10-04T10:32:25;101647.16;;;15.68;100.00
48824;BME280;34640;53.590;10.054;2022-10-04T10:36:05;101636.06;;;15.89;100.00
48824;BME280;34640;53.590;10.054;2022-10-04T10:39:36;101641.31;;;16.06;100.00
48824;BME280;34640;53.590;10.054;2022-10-04T10:43:02;101627.34;;;16.25;100.00
48824;BME280;34640;53.590;10.054;2022-10-04T10:46:29;101629.72;;;16.36;100.00
48824;BME280;34640;53.590;10.054;2022-10-04T10:50:18;101629.81;;;16.56;100.00
48824;BME280;34640;53.590;10.054;2022-10-04T10:53:54;101630.88;;;16.77;100.00
48824;BME280;34640;53.590;10.054;2022-10-04T10:57:15;101631.63;;;16.92;100.00
48824;BME280;34640;53.590;10.054;2022-10-04T11:00:39;101627.16;;;16.91;98.53
48824;BME280;34640;53.590;10.054;2022-10-04T11:04:31;101622.72;;;16.90;98.11
48824;BME280;34640;53.590;10.054;2022-10-04T11:07:47;101619.66;;;16.99;98.63
48824;BME280;34640;53.590;10.054;2022-10-04T11:11:16;101631.16;;;17.01;99.85
48824;BME280;34640;53.590;10.054;2022-10-04T11:22:17;101617.19;;;16.84;97.61
48824;BME280;34640;53.590;10.054;2022-10-04T11:25:58;101615.91;;;16.94;98.12
48824;BME280;34640;53.590;10.054;2022-10-04T11:29:21;101611.47;;;16.93;98.84
48824;BME280;34640;53.590;10.054;2022-10-04T11:33:09;101609.41;;;17.05;98.90
48824;BME280;34640;53.590;10.054;2022-10-04T11:36:37;101604.31;;;17.27;95.69
48824;BME280;34640;53.590;10.054;2022-10-04T11:40:09;101603.38;;;17.45;95.58
48824;BME280;34640;53.590;10.054;2022-10-04T11:43:40;101603.50;;;17.67;94.70
48824;BME280;34640;53.590;10.054;2022-10-04T11:46:55;101596.00;;;17.76;92.07
48824;BME280;34640;53.590;10.054;2022-10-04T11:50:17;101576.25;;;17.66;91.73
48824;BME280;34640;53.590;10.054;2022-10-04T11:53:42;101569.94;;;17.63;91.14
48824;BME280;34640;53.590;10.054;2022-10-04T11:57:11;101567.44;;;17.66;89.98
48824;BME280;34640;53.590;10.054;2022-10-04T12:00:25;101577.56;;;17.76;89.02
48824;BME280;34640;53.590;10.054;2022-10-04T12:03:56;101563.06;;;17.86;87.62
48824;BME280;34640;53.590;10.054;2022-10-04T12:07:26;101566.75;;;17.89;87.65
48824;BME280;34640;53.590;10.054;2022-10-04T12:10:41;101556.31;;;17.92;86.19
48824;BME280;34640;53.590;10.054;2022-10-04T12:14:03;101550.47;;;17.99;84.38
48824;BME280;34640;53.590;10.054;2022-10-04T12:17:54;101541.03;;;17.84;84.67
48824;BME280;34640;53.590;10.054;2022-10-04T12:21:24;101550.75;;;17.85;86.76
48824;BME280;34640;53.590;10.054;2022-10-04T12:24:59;101545.66;;;17.89;86.46
48824;BME280;34640;53.590;10.054;2022-10-04T12:31:56;101534.59;;;18.19;83.12
48824;BME280;34640;53.590;10.054;2022-10-04T12:35:18;101530.28;;;18.21;80.93
48824;BME280;34640;53.590;10.054;2022-10-04T12:38:50;101514.16;;;18.13;81.06
48824;BME280;34640;53.590;10.054;2022-10-04T12:42:10;101514.03;;;18.10;80.72
48824;BME280;34640;53.590;10.054;2022-10-04T12:45:42;101507.00;;;18.11;80.63
48824;BME280;34640;53.590;10.054;2022-10-04T12:49:02;101511.00;;;18.22;79.95
48824;BME280;34640;53.590;10.054;2022-10-04T12:52:21;101510.22;;;18.24;77.03
48824;BME280;34640;53.590;10.054;2022-10-04T12:55:56;101499.13;;;18.33;73.68
48824;BME280;34640;53.590;10.054;2022-10-04T12:59:18;101496.78;;;18.18;75.40
48824;BME280;34640;53.590;10.054;2022-10-04T13:02:56;101492.84;;;18.29;75.64
48824;BME280;34640;53.590;10.054;2022-10-04T13:06:13;101500.63;;;18.26;74.77
48824;BME280;34640;53.590;10.054;2022-10-04T13:09:43;101494.34;;;18.23;75.99
48824;BME280;34640;53.590;10.054;2022-10-04T13:13:34;101498.78;;;18.24;75.99
48824;BME280;34640;53.590;10.054;2022-10-04T13:16:50;101506.53;;;18.21;76.62
48824;BME280;34640;53.590;10.054;2022-10-04T13:20:31;101510.44;;;18.08;77.91
48824;BME280;34640;53.590;10.054;2022-10-04T13:23:55;101508.09;;;17.95;79.55
48824;BME280;34640;53.590;10.054;2022-10-04T13:27:06;101505.53;;;17.96;78.61
48824;BME280;34640;53.590;10.054;2022-10-04T13:30:21;101500.06;;;17.92;80.19
48824;BME280;34640;53.590;10.054;2022-10-04T13:33:39;101495.63;;;18.12;76.97
48824;BME280;34640;53.590;10.054;2022-10-04T13:37:01;101490.66;;;18.19;76.22
48824;BME280;34640;53.590;10.054;2022-10-04T13:40:29;101477.41;;;18.18;74.34
48824;BME280;34640;53.590;10.054;2022-10-04T13:43:52;101470.53;;;18.21;74.12
48824;BME280;34640;53.590;10.054;2022-10-04T13:47:22;101462.56;;;18.20;74.21
48824;BME280;34640;53.590;10.054;2022-10-04T13:50:41;101454.47;;;18.15;74.27
48824;BME280;34640;53.590;10.054;2022-10-04T13:54:04;101451.94;;;18.18;74.09
48824;BME280;34640;53.590;10.054;2022-10-04T13:57:41;101430.63;;;18.12;74.42
48824;BME280;34640;53.590;10.054;2022-10-04T14:01:12;101427.53;;;18.22;71.86
48824;BME280;34640;53.590;10.054;2022-10-04T14:04:54;101441.13;;;18.11;72.93
48824;BME280;34640;53.590;10.054;2022-10-04T14:08:23;101439.59;;;18.17;72.31
48824;BME280;34640;53.590;10.054;2022-10-04T14:12:05;101443.91;;;18.15;71.75
48824;BME280;34640;53.590;10.054;2022-10-04T14:15:52;101428.22;;;18.18;70.90
48824;BME280;34640;53.590;10.054;2022-10-04T14:19:40;101425.84;;;18.02;72.75
48824;BME280;34640;53.590;10.054;2022-10-04T14:23:16;101410.38;;;18.11;72.84
48824;BME280;34640;53.590;10.054;2022-10-04T14:30:18;101403.59;;;18.18;71.86
48824;BME280;34640;53.590;10.054;2022-10-04T14:34:17;101398.94;;;18.11;71.78
48824;BME280;34640;53.590;10.054;2022-10-04T14:37:52;101410.72;;;17.98;72.41
48824;BME280;34640;53.590;10.054;2022-10-04T14:41:30;101400.56;;;18.07;71.63
48824;BME280;34640;53.590;10.054;2022-10-04T14:44:55;101401.38;;;18.06;72.02
48824;BME280;34640;53.590;10.054;2022-10-04T14:48:37;101395.22;;;18.06;72.17
48824;BME280;34640;53.590;10.054;2022-10-04T14:52:01;101409.25;;;18.05;72.16
48824;BME280;34640;53.590;10.054;2022-10-04T14:55:25;101406.91;;;18.12;70.71
48824;BME280;34640;53.590;10.054;2022-10-04T14:58:50;101410.38;;;18.11;70.72
48824;BME280;34640;53.590;10.054;2022-10-04T15:02:18;101416.31;;;18.06;70.73
48824;BME280;34640;53.590;10.054;2022-10-04T15:05:34;101419.34;;;17.94;72.04
48824;BME280;34640;53.590;10.054;2022-10-04T15:09:17;101419.88;;;17.85;73.38
48824;BME280;34640;53.590;10.054;2022-10-04T15:12:43;101405.91;;;17.88;73.15
48824;BME280;34640;53.590;10.054;2022-10-04T15:16:16;101396.22;;;17.87;73.65
48824;BME280;34640;53.590;10.054;2022-10-04T15:19:30;101402.72;;;17.74;74.88
48824;BME280;34640;53.590;10.054;2022-10-04T15:22:51;101397.53;;;17.56;75.36
48824;BME280;34640;53.590;10.054;2022-10-04T15:26:07;101397.03;;;17.65;75.14
48824;BME280;34640;53.590;10.054;2022-10-04T15:29:24;101395.84;;;17.57;75.30
48824;BME280;34640;53.590;10.054;2022-10-04T15:32:37;101404.66;;;17.57;75.16
48824;BME280;34640;53.590;10.054;2022-10-04T15:36:02;101414.97;;;17.53;76.43
48824;BME280;34640;53.590;10.054;2022-10-04T15:39:37;101410.72;;;17.56;75.46
48824;BME280;34640;53.590;10.054;2022-10-04T15:43:04;101400.19;;;17.56;74.80
48824;BME280;34640;53.590;10.054;2022-10-04T15:46:35;101399.88;;;17.49;75.52
48824;BME280;34640;53.590;10.054;2022-10-04T15:49:58;101388.38;;;17.47;75.70
48824;BME280;34640;53.590;10.054;2022-10-04T15:53:16;101378.63;;;17.44;75.48
48824;BME280;34640;53.590;10.054;2022-10-04T15:56:39;101371.50;;;17.41;75.84
48824;BME280;34640;53.590;10.054;2022-10-04T15:59:50;101358.81;;;17.33;76.23
48824;BME280;34640;53.590;10.054;2022-10-04T16:03:11;101351.06;;;17.15;77.77
48824;BME280;34640;53.590;10.054;2022-10-04T16:06:25;101352.28;;;17.23;77.48
48824;BME280;34640;53.590;10.054;2022-10-04T16:09:36;101356.66;;;17.23;77.82
48824;BME280;34640;53.590;10.054;2022-10-04T16:13:29;101345.81;;;17.15;78.76
48824;BME280;34640;53.590;10.054;2022-10-04T16:17:04;101355.72;;;17.01;80.12
48824;BME280;34640;53.590;10.054;2022-10-04T16:24:28;101357.88;;;16.91;81.54
48824;BME280;34640;53.590;10.054;2022-10-04T16:28:03;101357.75;;;16.88;81.96
48824;BME280;34640;53.590;10.054;2022-10-04T16:34:49;101347.59;;;16.76;83.63
48824;BME280;34640;53.590;10.054;2022-10-04T16:38:12;101346.78;;;16.77;84.27
48824;BME280;34640;53.590;10.054;2022-10-04T16:41:32;101345.53;;;16.69;84.78
48824;BME280;34640;53.590;10.054;2022-10-04T16:44:49;101360.41;;;16.49;86.81
48824;BME280;34640;53.590;10.054;2022-10-04T16:48:01;101357.81;;;16.31;88.88
48824;BME280;34640;53.590;10.054;2022-10-04T16:51:41;101348.38;;;16.17;90.45
48824;BME280;34640;53.590;10.054;2022-10-04T16:58:47;101345.38;;;16.27;89.67
48824;BME280;34640;53.590;10.054;2022-10-04T17:02:16;101333.66;;;16.20;90.27
48824;BME280;34640;53.590;10.054;2022-10-04T17:05:52;101343.91;;;16.14;90.19
48824;BME280;34640;53.590;10.054;2022-10-04T17:09:13;101341.38;;;15.98;91.12
48824;BME280;34640;53.590;10.054;2022-10-04T17:12:32;101333.81;;;15.86;92.46
48824;BME280;34640;53.590;10.054;2022-10-04T17:15:47;101335.44;;;16.02;91.34
48824;BME280;34640;53.590;10.054;2022-10-04T17:19:13;101327.34;;;15.98;91.32
48824;BME280;34640;53.590;10.054;2022-10-04T17:22:31;101327.88;;;15.91;91.70
48824;BME280;34640;53.590;10.054;2022-10-04T17:25:47;101336.91;;;15.78;92.28
48824;BME280;34640;53.590;10.054;2022-10-04T17:29:19;101341.31;;;15.61;94.33
48824;BME280;34640;53.590;10.054;2022-10-04T17:32:39;101348.06;;;15.56;95.03
48824;BME280;34640;53.590;10.054;2022-10-04T17:36:08;101353.38;;;15.57;95.07
48824;BME280;34640;53.590;10.054;2022-10-04T17:39:37;101346.81;;;15.66;94.84
48824;BME280;34640;53.590;10.054;2022-10-04T17:42:52;101345.19;;;15.68;94.33
48824;BME280;34640;53.590;10.054;2022-10-04T17:46:16;101352.59;;;15.58;94.99
48824;BME280;34640;53.590;10.054;2022-10-04T17:49:31;101358.25;;;15.50;96.08
48824;BME280;34640;53.590;10.054;2022-10-04T17:53:03;101341.41;;;15.45;97.05
48824;BME280;34640;53.590;10.054;2022-10-04T17:56:36;101342.97;;;15.41;97.31